Time;durP1;ratioP1;P1;durP2;ratioP2;P2;SDS_P1;SDS_P2;PMS_P1;PMS_P2;Temp;Humidity;BMP_temperature;BMP_pressure;BME280_temperature;BME280_humidity;BME280_pressure;Samples;Min_cycle;Max_cycle;Signal;HPM_P1;HPM_P2
2021/06/17 00:00:18;;;;;;;18.50;16.80;;;23.40;94.60;;;;;;6099874;23;20460;-76
2021/06/17 00:02:46;;;;;;;19.17;17.50;;;23.30;94.60;;;;;;6094850;23;20435;-76
2021/06/17 00:05:19;;;;;;;19.67;18.07;;;23.30;94.70;;;;;;6070903;23;20450;-76
2021/06/17 00:07:48;;;;;;;18.93;17.43;;;23.30;94.70;;;;;;6071440;23;20775;-76
2021/06/17 00:10:22;;;;;;;18.80;17.40;;;23.30;94.80;;;;;;6071087;23;20427;-76
2021/06/17 00:12:51;;;;;;;19.00;17.60;;;23.20;94.80;;;;;;6070696;23;20434;-76
2021/06/17 00:15:21;;;;;;;18.80;17.40;;;23.20;94.90;;;;;;6107950;23;20518;-76
2021/06/17 00:17:50;;;;;;;19.90;18.40;;;23.20;95.00;;;;;;6106639;23;20839;-77
2021/06/17 00:20:23;;;;;;;19.10;17.73;;;23.20;95.60;;;;;;6072659;23;20519;-76
2021/06/17 00:22:52;;;;;;;21.03;19.27;;;23.20;95.40;;;;;;6072828;23;20419;-76
2021/06/17 00:25:21;;;;;;;19.50;18.00;;;23.20;95.40;;;;;;6072804;23;20420;-76
2021/06/17 00:27:49;;;;;;;18.43;17.10;;;23.10;95.50;;;;;;6098450;23;20513;-77
2021/06/17 00:30:18;;;;;;;19.37;17.87;;;23.00;95.50;;;;;;6072980;23;20508;-76
2021/06/17 00:32:47;;;;;;;18.30;17.00;;;23.00;95.50;;;;;;6073766;23;20511;-76
2021/06/17 00:35:15;;;;;;;19.87;18.47;;;23.00;95.60;;;;;;6072407;23;20441;-77
2021/06/17 00:37:46;;;;;;;20.50;19.00;;;22.90;95.60;;;;;;6108229;23;20939;-76
2021/06/17 00:40:15;;;;;;;20.40;18.90;;;22.90;95.70;;;;;;6108305;23;20766;-77
2021/06/17 00:42:47;;;;;;;20.00;18.13;;;22.90;95.80;;;;;;6074253;23;20418;-76
2021/06/17 00:45:20;;;;;;;19.30;17.90;;;22.80;95.80;;;;;;6108373;23;20465;-76
2021/06/17 00:47:49;;;;;;;21.27;19.50;;;22.80;95.90;;;;;;6098577;23;20811;-76
2021/06/17 00:50:17;;;;;;;19.50;17.90;;;22.80;95.90;;;;;;6107828;23;20445;-76
2021/06/17 00:52:49;;;;;;;21.10;19.50;;;22.80;96.00;;;;;;6108581;23;20429;-76
2021/06/17 00:55:17;;;;;;;19.40;18.00;;;22.70;96.10;;;;;;6072162;23;20441;-77
2021/06/17 00:57:46;;;;;;;19.77;18.37;;;22.70;96.10;;;;;;6107835;23;20521;-76
2021/06/17 01:00:16;;;;;;;21.00;19.27;;;22.70;96.20;;;;;;6072636;23;20860;-76
2021/06/17 01:02:46;;;;;;;21.00;19.47;;;22.60;96.20;;;;;;6127136;23;20413;-76
2021/06/17 01:05:19;;;;;;;19.73;18.13;;;22.60;96.30;;;;;;6137124;23;20845;-76
2021/06/17 01:08:13;;;;;;;20.40;18.77;;;22.60;96.40;;;;;;6102521;23;20478;-77
2021/06/17 01:10:50;;;;;;;20.88;19.38;;;22.50;96.50;;;;;;6101329;23;20418;-76
2021/06/17 01:13:34;;;;;;;21.30;19.50;;;22.50;96.60;;;;;;6101653;23;20589;-77
2021/06/17 01:16:10;;;;;;;21.20;19.30;;;22.50;96.70;;;;;;6101131;23;20756;-77
2021/06/17 01:18:42;;;;;;;20.07;18.47;;;22.40;96.70;;;;;;6101614;23;20820;-76
2021/06/17 01:21:21;;;;;;;20.10;18.40;;;22.40;96.80;;;;;;6137286;23;20468;-76
2021/06/17 01:24:15;;;;;;;21.47;19.77;;;22.40;96.90;;;;;;6101773;23;20903;-76
2021/06/17 01:27:01;;;;;;;20.57;18.80;;;22.40;97.00;;;;;;6125579;23;20425;-76
2021/06/17 01:29:31;;;;;;;21.07;19.57;;;22.30;97.00;;;;;;6101381;23;20539;-76
2021/06/17 01:32:00;;;;;;;21.40;19.53;;;22.30;97.00;;;;;;6101394;23;20527;-76
2021/06/17 01:34:30;;;;;;;20.17;18.57;;;22.20;97.10;;;;;;6101329;23;20726;-77
2021/06/17 01:37:01;;;;;;;20.50;18.90;;;22.20;97.20;;;;;;6100949;23;20834;-77
2021/06/17 01:39:32;;;;;;;21.73;20.23;;;22.20;97.50;;;;;;6101759;23;20448;-76
2021/06/17 01:42:02;;;;;;;21.67;20.03;;;22.20;97.30;;;;;;6137131;23;20781;-76
2021/06/17 01:44:33;;;;;;;21.50;19.87;;;22.10;97.40;;;;;;6101540;23;20459;-76
2021/06/17 01:47:03;;;;;;;21.97;20.47;;;22.10;97.50;;;;;;6101175;23;20506;-76
2021/06/17 01:49:32;;;;;;;22.00;20.40;;;22.10;97.60;;;;;;6100612;23;20500;-77
2021/06/17 01:52:01;;;;;;;22.70;21.00;;;22.00;97.60;;;;;;6101171;23;20428;-76
2021/06/17 01:54:30;;;;;;;19.90;18.50;;;22.00;97.70;;;;;;6101106;23;20417;-76
2021/06/17 01:57:01;;;;;;;21.37;19.67;;;22.00;97.80;;;;;;6125735;23;20506;-76
2021/06/17 01:59:32;;;;;;;20.53;18.93;;;22.00;97.80;;;;;;6125412;23;20502;-76
2021/06/17 02:02:02;;;;;;;22.40;20.20;;;22.00;97.90;;;;;;6101938;23;20945;-76
2021/06/17 02:04:32;;;;;;;22.20;20.40;;;21.90;98.00;;;;;;6127486;23;20411;-76
2021/06/17 02:07:00;;;;;;;21.67;19.97;;;21.90;98.00;;;;;;6136945;23;20589;-77
2021/06/17 02:09:30;;;;;;;20.53;18.80;;;21.90;98.10;;;;;;6136777;23;20470;-76
2021/06/17 02:11:58;;;;;;;24.67;22.60;;;21.90;98.20;;;;;;6136916;23;20438;-76
2021/06/17 02:14:28;;;;;;;22.57;20.87;;;21.80;98.30;;;;;;6137340;23;20405;-76
2021/06/17 02:17:01;;;;;;;21.57;19.97;;;21.80;98.40;;;;;;6101102;23;20464;-76
2021/06/17 02:19:32;;;;;;;20.97;19.47;;;21.80;98.50;;;;;;6137038;23;20446;-76
2021/06/17 02:22:03;;;;;;;22.60;20.70;;;21.80;98.60;;;;;;6136799;23;20469;-77
2021/06/17 02:24:36;;;;;;;21.67;20.07;;;21.70;98.60;;;;;;6100945;23;20490;-76
2021/06/17 02:27:07;;;;;;;21.43;19.73;;;21.70;98.70;;;;;;6137100;23;20459;-76
2021/06/17 02:29:41;;;;;;;23.10;21.37;;;21.70;98.70;;;;;;6100857;23;20769;-76
2021/06/17 02:32:15;;;;;;;22.90;21.10;;;21.60;99.00;;;;;;6101301;23;20467;-76
2021/06/17 02:34:44;;;;;;;21.90;20.30;;;21.60;98.90;;;;;;6100953;23;20443;-76
2021/06/17 02:37:14;;;;;;;21.67;20.07;;;21.60;98.90;;;;;;6100719;23;20440;-76
2021/06/17 02:39:42;;;;;;;20.87;19.30;;;21.60;99.00;;;;;;6100892;23;20753;-76
2021/06/17 02:42:15;;;;;;;21.70;20.00;;;21.50;99.10;;;;;;6100665;23;20422;-77
2021/06/17 02:44:45;;;;;;;23.97;22.07;;;21.50;99.10;;;;;;6101007;23;20528;-76
2021/06/17 02:47:14;;;;;;;21.20;19.60;;;21.50;99.20;;;;;;6100705;23;20427;-76
2021/06/17 02:49:44;;;;;;;21.53;19.83;;;21.40;99.30;;;;;;6136988;23;20463;-76
2021/06/17 02:52:12;;;;;;;22.13;20.30;;;21.40;99.40;;;;;;6100841;23;20508;-76
2021/06/17 02:54:41;;;;;;;21.97;20.17;;;21.40;99.50;;;;;;6101025;23;20423;-76
2021/06/17 02:57:24;;;;;;;21.60;19.90;;;21.40;99.60;;;;;;6100437;23;20418;-77
2021/06/17 03:00:05;;;;;;;22.93;21.27;;;21.30;99.70;;;;;;6100865;23;20173;-76
2021/06/17 03:02:42;;;;;;;20.93;19.23;;;21.30;99.80;;;;;;6100676;23;20428;-76
2021/06/17 03:05:16;;;;;;;23.40;21.30;;;21.30;99.80;;;;;;6101225;23;20412;-77
2021/06/17 03:07:50;;;;;;;21.63;19.97;;;21.30;99.90;;;;;;6100700;23;20982;-77
2021/06/17 03:10:21;;;;;;;22.03;20.33;;;21.30;99.90;;;;;;6101000;23;20454;-76
2021/06/17 03:12:52;;;;;;;22.60;20.90;;;21.30;99.90;;;;;;6100562;23;20423;-76
2021/06/17 03:15:21;;;;;;;22.23;20.53;;;21.20;99.90;;;;;;6100618;23;20412;-76
2021/06/17 03:17:53;;;;;;;23.00;21.13;;;21.20;99.90;;;;;;6100363;23;20476;-76
2021/06/17 03:20:24;;;;;;;24.43;22.50;;;21.20;99.90;;;;;;6100763;23;20423;-76
2021/06/17 03:22:56;;;;;;;22.33;20.63;;;21.20;99.90;;;;;;6136306;23;20416;-76
2021/06/17 03:25:27;;;;;;;21.93;20.10;;;21.20;99.90;;;;;;6100589;23;20508;-76
2021/06/17 03:27:57;;;;;;;21.97;20.27;;;21.20;99.90;;;;;;6136483;23;20896;-76
2021/06/17 03:30:29;;;;;;;21.90;20.30;;;21.20;99.90;;;;;;6126720;23;21025;-76
2021/06/17 03:33:01;;;;;;;23.80;22.00;;;21.10;99.90;;;;;;6126793;23;20479;-76
2021/06/17 03:35:32;;;;;;;22.33;20.37;;;21.10;99.90;;;;;;6136561;23;20421;-76
2021/06/17 03:38:02;;;;;;;22.73;20.90;;;21.10;99.90;;;;;;6100132;23;20467;-76
2021/06/17 03:40:31;;;;;;;23.17;21.33;;;21.10;99.90;;;;;;6100573;23;20418;-76
2021/06/17 03:43:01;;;;;;;23.57;21.57;;;21.10;99.90;;;;;;6099405;23;20910;-76
2021/06/17 03:45:31;;;;;;;21.97;20.37;;;21.10;99.90;;;;;;6100487;23;20462;-76
2021/06/17 03:48:01;;;;;;;22.40;20.40;;;21.10;99.90;;;;;;6136670;23;20793;-76
2021/06/17 03:50:30;;;;;;;22.50;20.80;;;21.10;99.90;;;;;;6102627;23;20813;-76
2021/06/17 03:52:59;;;;;;;24.03;22.23;;;21.10;99.90;;;;;;6138219;23;20409;-76
2021/06/17 03:55:28;;;;;;;23.17;21.17;;;21.10;99.90;;;;;;6101453;23;20413;-76
2021/06/17 03:57:57;;;;;;;23.40;21.40;;;21.10;99.90;;;;;;6126720;23;20581;-76
2021/06/17 04:00:30;;;;;;;23.30;21.60;;;21.10;99.90;;;;;;6138181;23;20404;-77
2021/06/17 04:03:01;;;;;;;24.97;22.87;;;21.10;99.90;;;;;;6128183;23;20421;-77
2021/06/17 04:05:29;;;;;;;31.53;28.97;;;21.10;99.90;;;;;;6102493;23;20800;-76
2021/06/17 04:08:00;;;;;;;24.73;22.40;;;21.10;99.90;;;;;;6102215;23;20903;-76
2021/06/17 04:10:30;;;;;;;30.93;28.00;;;21.00;99.90;;;;;;6102171;23;20408;-76
2021/06/17 04:12:59;;;;;;;27.20;24.80;;;21.00;99.90;;;;;;6102074;23;20823;-76
2021/06/17 04:15:29;;;;;;;27.83;25.60;;;21.00;99.90;;;;;;6102245;23;20423;-76
2021/06/17 04:18:01;;;;;;;24.50;22.50;;;21.00;99.90;;;;;;6127944;23;20947;-76
2021/06/17 04:20:33;;;;;;;22.93;21.13;;;21.00;99.90;;;;;;6102427;23;20451;-76
2021/06/17 04:23:02;;;;;;;24.07;22.03;;;21.00;99.90;;;;;;6137917;23;20455;-76
2021/06/17 04:25:31;;;;;;;23.37;21.60;;;21.00;99.90;;;;;;6102237;23;20552;-77
2021/06/17 04:28:01;;;;;;;23.67;21.73;;;21.00;99.90;;;;;;6127951;23;20460;-76
2021/06/17 04:30:31;;;;;;;26.10;23.80;;;21.00;99.90;;;;;;6127981;23;20404;-76
2021/06/17 04:33:03;;;;;;;22.23;20.53;;;21.00;99.90;;;;;;6102251;23;20921;-77
2021/06/17 04:35:32;;;;;;;22.37;20.77;;;21.00;99.90;;;;;;6102082;23;20408;-77
2021/06/17 04:38:00;;;;;;;24.53;22.73;;;21.10;99.90;;;;;;6101156;23;20458;-76
2021/06/17 04:40:29;;;;;;;24.20;22.30;;;21.10;99.90;;;;;;6102213;23;20502;-76
2021/06/17 04:43:00;;;;;;;24.47;22.53;;;21.10;99.90;;;;;;6101985;23;20474;-76
2021/06/17 04:45:29;;;;;;;22.50;20.60;;;21.10;99.90;;;;;;6102701;23;20494;-76
2021/06/17 04:48:05;;;;;;;22.83;21.00;;;21.10;99.90;;;;;;6138085;23;20955;-77
2021/06/17 04:50:33;;;;;;;24.33;22.42;;;21.10;99.90;;;;;;6100944;23;20453;-76
2021/06/17 04:53:14;;;;;;;23.77;21.97;;;21.20;99.90;;;;;;6128197;23;20561;-76
2021/06/17 04:55:51;;;;;;;23.37;21.53;;;21.30;99.90;;;;;;6127569;23;20398;-76
2021/06/17 04:58:20;;;;;;;23.00;20.90;;;21.30;99.90;;;;;;6137587;23;20768;-77
2021/06/17 05:00:49;;;;;;;22.97;21.10;;;21.30;99.90;;;;;;6101019;23;20452;-76
2021/06/17 05:03:19;;;;;;;21.87;20.27;;;21.30;99.90;;;;;;6095255;23;20469;-77
2021/06/17 05:05:49;;;;;;;23.73;21.73;;;21.30;99.90;;;;;;6071566;23;20429;-76
2021/06/17 05:11:02;;;;;;;22.87;21.03;;;21.30;99.90;;;;;;6096929;23;20408;-76
2021/06/17 05:13:31;;;;;;;23.53;21.63;;;21.40;99.90;;;;;;6072545;23;20431;-76
2021/06/17 05:16:01;;;;;;;24.87;22.80;;;21.40;99.90;;;;;;6072856;23;20681;-77
2021/06/17 05:18:31;;;;;;;25.07;22.83;;;21.40;99.90;;;;;;6072889;23;20489;-76
2021/06/17 05:20:59;;;;;;;20.87;19.37;;;21.50;99.90;;;;;;6098150;23;20412;-76
2021/06/17 05:23:28;;;;;;;23.93;22.07;;;21.50;99.90;;;;;;6072477;23;20425;-76
2021/06/17 05:25:59;;;;;;;22.73;20.83;;;21.60;99.90;;;;;;6072711;23;20417;-76
2021/06/17 05:28:28;;;;;;;21.90;20.27;;;21.60;99.90;;;;;;6072454;23;20536;-76
2021/06/17 05:30:58;;;;;;;21.90;20.20;;;21.70;99.90;;;;;;6072712;23;20467;-76
2021/06/17 05:33:27;;;;;;;21.80;20.20;;;21.80;99.90;;;;;;6072374;23;20429;-76
2021/06/17 05:35:56;;;;;;;22.57;20.53;;;21.90;99.90;;;;;;6107689;23;20405;-76
2021/06/17 05:38:25;;;;;;;19.53;18.00;;;22.10;99.90;;;;;;6072276;23;20935;-76
2021/06/17 05:40:54;;;;;;;21.10;19.40;;;22.20;99.90;;;;;;6072345;23;20411;-77
2021/06/17 05:43:23;;;;;;;21.20;19.60;;;22.40;99.90;;;;;;6072886;23;20510;-76
2021/06/17 05:45:51;;;;;;;20.88;19.08;;;22.60;99.90;;;;;;6107359;23;20494;-77
2021/06/17 05:48:19;;;;;;;19.53;17.90;;;22.90;99.90;;;;;;6107703;23;20269;-76
2021/06/17 05:50:47;;;;;;;20.23;18.63;;;23.20;99.90;;;;;;6072658;23;20423;-76
2021/06/17 05:53:17;;;;;;;19.53;17.93;;;23.40;99.90;;;;;;6107807;23;20767;-76
2021/06/17 05:55:45;;;;;;;18.60;17.03;;;23.70;99.90;;;;;;6072378;23;20430;-76
2021/06/17 05:58:13;;;;;;;19.40;17.87;;;23.90;99.90;;;;;;6072186;23;20846;-77
2021/06/17 06:00:42;;;;;;;18.67;17.00;;;24.20;99.90;;;;;;6072812;23;20502;-76
2021/06/17 06:03:10;;;;;;;17.63;16.43;;;24.50;99.90;;;;;;6095672;23;20449;-77
2021/06/17 06:05:38;;;;;;;18.73;17.13;;;24.80;99.90;;;;;;6137218;23;20406;-77
2021/06/17 06:08:11;;;;;;;17.93;16.47;;;25.10;99.90;;;;;;6101026;23;20442;-77
2021/06/17 06:10:41;;;;;;;21.33;19.50;;;25.40;99.90;;;;;;6103447;23;20795;-76
2021/06/17 06:13:09;;;;;;;19.67;17.40;;;25.60;99.90;;;;;;6128632;23;20767;-77
2021/06/17 06:15:38;;;;;;;17.10;15.70;;;25.90;99.90;;;;;;6101099;23;20972;-77
2021/06/17 06:18:07;;;;;;;17.33;16.03;;;26.10;99.90;;;;;;6101096;23;20481;-77
2021/06/17 06:20:36;;;;;;;20.40;18.73;;;26.40;99.90;;;;;;6101128;23;20482;-77
2021/06/17 06:23:05;;;;;;;17.50;16.10;;;26.70;99.90;;;;;;6101201;23;20427;-77
2021/06/17 06:25:34;;;;;;;15.40;14.10;;;26.90;99.90;;;;;;6101014;23;20795;-76
2021/06/17 06:28:04;;;;;;;16.35;15.05;;;27.20;99.90;;;;;;6100155;23;20454;-77
2021/06/17 06:30:33;;;;;;;15.80;14.40;;;27.40;99.90;;;;;;6127365;23;20182;-77
2021/06/17 06:33:01;;;;;;;15.63;14.33;;;27.60;99.90;;;;;;6100772;23;20496;-77
2021/06/17 06:35:29;;;;;;;16.37;15.10;;;27.80;99.90;;;;;;6101021;23;20504;-78
2021/06/17 06:37:57;;;;;;;17.00;15.70;;;28.00;99.70;;;;;;6100856;23;20449;-77
2021/06/17 06:40:27;;;;;;;15.23;14.03;;;28.20;99.50;;;;;;6136398;23;20440;-78
2021/06/17 06:43:24;;;;;;;15.30;13.93;;;28.40;99.10;;;;;;6100892;23;20432;-77
2021/06/17 06:45:52;;;;;;;13.73;12.73;;;28.60;98.80;;;;;;6101065;23;20504;-78
2021/06/17 06:48:20;;;;;;;14.93;13.83;;;28.80;98.70;;;;;;6136702;23;20418;-78
2021/06/17 06:50:49;;;;;;;15.60;14.40;;;29.00;98.50;;;;;;6101096;23;20765;-78
2021/06/17 06:53:17;;;;;;;14.83;13.57;;;29.10;98.20;;;;;;6125271;23;20413;-77
2021/06/17 06:55:45;;;;;;;14.17;13.07;;;29.30;98.00;;;;;;6101093;23;20432;-78
2021/06/17 06:58:15;;;;;;;13.20;12.30;;;29.50;97.60;;;;;;6100886;23;20454;-78
2021/06/17 07:00:46;;;;;;;13.73;12.73;;;29.70;97.40;;;;;;6101417;23;20420;-78
2021/06/17 07:03:14;;;;;;;14.40;13.20;;;29.80;97.20;;;;;;6096969;23;20486;-78
2021/06/17 07:05:43;;;;;;;13.90;12.63;;;30.00;97.00;;;;;;6098062;23;20434;-77
2021/06/17 07:08:11;;;;;;;13.90;12.80;;;30.20;96.80;;;;;;6096931;23;20443;-78
2021/06/17 07:10:40;;;;;;;13.90;12.63;;;30.30;96.50;;;;;;6108284;23;20489;-78
2021/06/17 07:13:09;;;;;;;12.90;11.93;;;30.50;96.30;;;;;;6120650;23;20418;-77
2021/06/17 07:15:38;;;;;;;12.50;11.40;;;30.60;95.80;;;;;;6096485;23;20465;-78
2021/06/17 07:18:08;;;;;;;13.33;12.17;;;30.80;95.50;;;;;;6096140;23;20455;-77
2021/06/17 07:20:36;;;;;;;12.50;11.40;;;30.90;95.20;;;;;;6120908;23;20411;-78
2021/06/17 07:23:04;;;;;;;12.45;11.48;;;31.00;95.00;;;;;;6094754;23;20411;-78
2021/06/17 07:25:32;;;;;;;12.93;11.93;;;31.30;94.10;;;;;;6096761;23;20541;-78
2021/06/17 07:28:01;;;;;;;12.97;11.77;;;31.40;94.10;;;;;;6097005;23;20444;-78
2021/06/17 07:30:29;;;;;;;12.50;11.60;;;31.60;94.00;;;;;;6096085;23;20510;-78
2021/06/17 07:32:58;;;;;;;11.13;10.37;;;31.70;93.80;;;;;;6098462;23;20482;-78
2021/06/17 07:35:27;;;;;;;13.00;12.10;;;31.80;93.60;;;;;;6121417;23;20413;-78
2021/06/17 07:37:55;;;;;;;12.37;11.47;;;31.90;93.50;;;;;;6121085;23;20443;-78
2021/06/17 07:40:23;;;;;;;12.03;11.13;;;31.90;93.20;;;;;;6107645;23;20434;-77
2021/06/17 07:42:52;;;;;;;12.73;11.50;;;32.10;92.90;;;;;;6107453;23;20414;-78
2021/06/17 07:45:20;;;;;;;12.07;11.13;;;32.10;92.60;;;;;;6120651;23;20929;-78
2021/06/17 07:47:48;;;;;;;11.90;11.10;;;32.20;92.40;;;;;;6096732;23;20442;-78
2021/06/17 07:50:18;;;;;;;12.23;11.03;;;32.20;92.20;;;;;;6097130;23;20422;-78
2021/06/17 07:52:49;;;;;;;11.93;11.03;;;32.30;92.20;;;;;;6095655;23;20809;-77
2021/06/17 07:55:18;;;;;;;12.53;11.40;;;32.40;91.90;;;;;;6107189;23;20486;-77
2021/06/17 07:57:46;;;;;;;13.50;12.37;;;32.50;91.70;;;;;;6096956;23;20972;-78
2021/06/17 08:00:15;;;;;;;10.93;10.07;;;32.60;91.50;;;;;;6106778;23;20739;-77
2021/06/17 08:02:43;;;;;;;12.67;11.43;;;32.70;91.30;;;;;;6095273;23;20422;-78
2021/06/17 08:05:13;;;;;;;10.63;9.90;;;32.80;91.10;;;;;;6107166;23;20403;-78
2021/06/17 08:07:43;;;;;;;11.33;10.53;;;32.80;90.80;;;;;;6095358;23;20442;-77
2021/06/17 08:10:12;;;;;;;11.33;10.53;;;32.90;91.00;;;;;;6097367;23;20747;-78
2021/06/17 08:12:40;;;;;;;13.10;12.10;;;33.00;90.60;;;;;;6119747;23;20497;-78
2021/06/17 08:15:09;;;;;;;10.68;9.77;;;33.00;90.30;;;;;;6105473;23;20435;-77
2021/06/17 08:17:38;;;;;;;10.43;9.73;;;33.20;87.80;;;;;;6095751;23;20538;-77
2021/06/17 08:20:08;;;;;;;10.97;10.17;;;33.20;87.90;;;;;;6095471;23;20439;-77
2021/06/17 08:22:37;;;;;;;11.23;10.43;;;33.30;87.90;;;;;;6095373;23;20929;-78
2021/06/17 08:25:09;;;;;;;11.13;10.23;;;33.30;87.80;;;;;;6106842;23;20403;-77
2021/06/17 08:27:38;;;;;;;9.87;9.17;;;33.40;87.70;;;;;;6119547;23;20533;-78
2021/06/17 08:30:09;;;;;;;13.23;12.13;;;33.50;87.50;;;;;;6095494;23;20513;-78
2021/06/17 08:32:37;;;;;;;11.67;10.53;;;33.50;87.20;;;;;;6095298;23;20424;-77
2021/06/17 08:35:06;;;;;;;10.77;10.07;;;33.50;86.90;;;;;;6096681;23;20428;-77
2021/06/17 08:37:35;;;;;;;11.37;10.57;;;33.60;86.70;;;;;;6099772;23;20450;-78
2021/06/17 08:40:06;;;;;;;10.47;9.77;;;33.60;86.70;;;;;;6108566;23;20434;-77
2021/06/17 08:42:34;;;;;;;10.93;10.13;;;33.70;86.40;;;;;;6098520;23;20470;-78
2021/06/17 08:45:06;;;;;;;11.10;10.30;;;33.70;86.10;;;;;;6096845;23;20433;-78
2021/06/17 08:47:35;;;;;;;12.57;11.57;;;33.70;86.00;;;;;;6096882;23;20406;-77
2021/06/17 08:50:07;;;;;;;12.10;11.20;;;33.80;85.80;;;;;;6096959;23;20441;-78
2021/06/17 08:52:39;;;;;;;10.67;10.00;;;33.80;85.40;;;;;;6096905;23;20410;-78
2021/06/17 08:55:17;;;;;;;10.63;9.67;;;33.90;85.60;;;;;;6108550;23;20874;-77
2021/06/17 08:57:47;;;;;;;10.90;10.00;;;34.00;85.30;;;;;;6098663;23;20430;-78
2021/06/17 09:00:34;;;;;;;11.40;10.20;;;34.10;85.20;;;;;;6108627;23;20473;-77
2021/06/17 09:03:05;;;;;;;11.30;10.30;;;34.20;84.70;;;;;;6130530;23;20406;-78
2021/06/17 09:05:36;;;;;;;11.17;10.37;;;34.20;84.60;;;;;;6101665;23;20413;-77
2021/06/17 09:08:05;;;;;;;10.65;9.85;;;34.20;84.40;;;;;;6100623;23;20429;-77
2021/06/17 09:10:39;;;;;;;10.70;9.90;;;34.30;82.10;;;;;;6137379;23;20258;-77
2021/06/17 09:13:08;;;;;;;10.90;10.00;;;34.40;82.60;;;;;;6101610;23;20497;-77
2021/06/17 09:15:42;;;;;;;11.27;10.43;;;34.40;82.80;;;;;;6137287;23;20877;-77
2021/06/17 09:18:19;;;;;;;9.53;8.73;;;34.40;82.60;;;;;;6101491;23;20487;-78
2021/06/17 09:20:50;;;;;;;10.60;9.80;;;34.50;82.50;;;;;;6101902;23;20464;-78
2021/06/17 09:23:28;;;;;;;10.47;9.73;;;34.50;82.20;;;;;;6137569;23;20414;-77
2021/06/17 09:25:59;;;;;;;10.83;9.93;;;34.50;81.90;;;;;;6137389;23;20441;-77
2021/06/17 09:28:28;;;;;;;10.88;9.98;;;34.60;82.10;;;;;;6100309;23;20501;-77
2021/06/17 09:30:58;;;;;;;11.10;10.40;;;34.70;80.20;;;;;;6137440;23;20610;-78
2021/06/17 09:33:26;;;;;;;11.80;10.70;;;34.80;80.30;;;;;;6101683;23;20790;-77
2021/06/17 09:35:56;;;;;;;10.57;9.77;;;34.80;80.30;;;;;;6137082;23;20417;-77
2021/06/17 09:38:26;;;;;;;10.87;10.07;;;34.80;80.40;;;;;;6137704;23;20509;-77
2021/06/17 09:40:57;;;;;;;9.60;8.80;;;34.80;80.70;;;;;;6102581;23;20544;-77
2021/06/17 09:43:28;;;;;;;10.00;9.20;;;34.80;80.70;;;;;;6137685;23;20410;-77
2021/06/17 09:46:00;;;;;;;9.37;8.70;;;34.80;80.50;;;;;;6137544;23;20466;-77
2021/06/17 09:48:49;;;;;;;9.40;8.60;;;34.80;80.30;;;;;;6102530;23;20750;-77
2021/06/17 09:51:30;;;;;;;10.17;9.17;;;34.90;80.30;;;;;;6101541;23;20460;-77
2021/06/17 09:54:28;;;;;;;9.20;8.57;;;35.00;79.40;;;;;;6101680;23;20512;-77
2021/06/17 09:56:59;;;;;;;9.10;8.57;;;35.00;78.70;;;;;;6108393;23;20477;-78
2021/06/17 09:59:39;;;;;;;8.50;7.73;;;35.00;78.80;;;;;;6101045;23;20446;-77
2021/06/17 10:02:09;;;;;;;10.40;9.40;;;35.00;78.40;;;;;;6125528;23;20447;-77
2021/06/17 10:04:38;;;;;;;9.03;8.33;;;35.00;78.30;;;;;;6125934;23;20989;-78
2021/06/17 10:07:07;;;;;;;9.77;9.17;;;35.10;78.30;;;;;;6101741;23;20418;-77
2021/06/17 10:09:35;;;;;;;8.70;8.10;;;35.20;78.30;;;;;;6101753;23;20524;-78
2021/06/17 10:12:05;;;;;;;8.13;7.53;;;35.20;77.80;;;;;;6138023;23;20398;-77
2021/06/17 10:14:34;;;;;;;8.63;8.03;;;35.20;77.20;;;;;;6101715;23;20897;-78
2021/06/17 10:17:04;;;;;;;10.63;9.60;;;35.30;76.90;;;;;;6102232;23;20500;-78
2021/06/17 10:19:33;;;;;;;11.07;10.20;;;35.30;76.30;;;;;;6101751;23;20528;-78
2021/06/17 10:22:02;;;;;;;8.40;7.70;;;35.40;76.10;;;;;;6101937;23;20508;-77
2021/06/17 10:24:37;;;;;;;9.47;8.67;;;35.40;75.60;;;;;;6126211;23;20426;-78
2021/06/17 10:27:09;;;;;;;9.37;8.60;;;35.40;75.30;;;;;;6101565;23;20409;-78
2021/06/17 10:29:41;;;;;;;8.63;7.97;;;35.40;74.80;;;;;;6100933;23;20522;-77
2021/06/17 10:32:15;;;;;;;7.90;7.30;;;35.40;74.20;;;;;;6136573;23;20403;-77
2021/06/17 10:34:51;;;;;;;8.93;8.03;;;35.50;72.70;;;;;;6101247;23;20165;-77
2021/06/17 10:37:30;;;;;;;7.03;6.53;;;35.50;72.70;;;;;;6101971;23;20417;-79
2021/06/17 10:40:05;;;;;;;7.80;7.00;;;35.60;72.40;;;;;;6101176;23;20524;-78
2021/06/17 10:42:41;;;;;;;8.07;7.47;;;35.60;72.40;;;;;;6101287;23;20808;-77
2021/06/17 10:45:13;;;;;;;7.97;7.30;;;35.60;72.30;;;;;;6125319;23;20945;-77
2021/06/17 10:47:57;;;;;;;7.67;7.13;;;35.60;72.20;;;;;;6137150;23;20939;-78
2021/06/17 10:50:43;;;;;;;7.27;6.77;;;35.70;72.00;;;;;;6127191;23;20403;-77
2021/06/17 10:53:17;;;;;;;7.60;7.10;;;35.70;72.00;;;;;;6098155;23;20437;-77
2021/06/17 10:56:07;;;;;;;8.93;8.13;;;35.70;71.80;;;;;;6137987;23;20438;-77
2021/06/17 10:58:59;;;;;;;8.23;7.43;;;35.80;71.20;;;;;;6125770;23;20496;-77
2021/06/17 11:01:31;;;;;;;8.40;7.80;;;35.80;71.20;;;;;;6101705;23;20771;-77
2021/06/17 11:04:14;;;;;;;7.38;6.70;;;35.80;71.30;;;;;;6101952;23;20422;-77
2021/06/17 11:07:17;;;;;;;7.37;6.97;;;35.90;70.00;;;;;;6138714;23;20155;-78
2021/06/17 11:10:11;;;;;;;7.63;7.07;;;35.90;69.40;;;;;;6141698;23;20441;-78
2021/06/17 11:13:02;;;;;;;7.50;7.00;;;35.90;69.30;;;;;;6103891;23;20413;-78
2021/06/17 11:15:51;;;;;;;7.80;7.20;;;35.90;69.40;;;;;;6102830;23;20506;-78
2021/06/17 11:19:02;;;;;;;8.47;7.13;;;35.90;69.50;;;;;;6101526;23;20434;-78
2021/06/17 11:21:47;;;;;;;8.00;7.40;;;35.90;69.40;;;;;;6101770;23;20468;-78
2021/06/17 11:24:33;;;;;;;7.97;7.37;;;35.90;69.10;;;;;;6101468;23;20452;-77
2021/06/17 11:27:02;;;;;;;8.00;7.40;;;35.80;68.80;;;;;;6127282;23;20405;-77
2021/06/17 11:29:57;;;;;;;8.30;7.50;;;35.80;69.00;;;;;;6127494;23;20477;-77
2021/06/17 11:32:27;;;;;;;8.90;8.30;;;35.90;68.60;;;;;;6101082;23;20185;-77
2021/06/17 11:34:58;;;;;;;8.07;7.57;;;35.90;68.50;;;;;;6101344;23;20453;-78
2021/06/17 11:37:31;;;;;;;7.60;7.10;;;35.90;68.40;;;;;;6126093;23;20419;-78
2021/06/17 11:40:00;;;;;;;7.63;6.47;;;35.90;68.40;;;;;;6102438;23;20520;-77
2021/06/17 11:42:29;;;;;;;8.27;7.40;;;35.90;68.40;;;;;;6127620;23;20417;-77
2021/06/17 11:45:03;;;;;;;7.63;7.13;;;35.90;68.20;;;;;;6102497;23;20453;-78
2021/06/17 11:47:32;;;;;;;6.63;6.23;;;35.90;68.10;;;;;;6126163;23;20698;-77
2021/06/17 11:50:08;;;;;;;6.57;6.07;;;35.90;67.20;;;;;;6137252;23;20425;-78
2021/06/17 11:52:40;;;;;;;5.97;5.57;;;35.90;66.10;;;;;;6128375;23;20404;-78
2021/06/17 11:55:10;;;;;;;6.70;6.13;;;35.90;65.80;;;;;;6102211;23;20449;-77
2021/06/17 11:57:41;;;;;;;5.93;5.53;;;35.90;65.50;;;;;;6139742;23;20422;-77
2021/06/17 12:00:13;;;;;;;8.18;7.45;;;36.00;65.40;;;;;;6137988;23;20409;-78
2021/06/17 12:02:49;;;;;;;6.57;5.97;;;36.00;64.20;;;;;;6101494;23;20218;-78
2021/06/17 12:05:22;;;;;;;5.77;5.27;;;36.00;64.20;;;;;;6125363;23;20417;-77
2021/06/17 12:07:51;;;;;;;6.30;5.77;;;36.00;64.00;;;;;;6125032;23;20777;-77
2021/06/17 12:10:22;;;;;;;5.87;5.40;;;36.00;63.50;;;;;;6126916;23;20480;-77
2021/06/17 12:12:54;;;;;;;7.63;6.03;;;36.00;62.90;;;;;;6103528;23;20884;-78
2021/06/17 12:15:24;;;;;;;6.33;5.83;;;36.00;62.50;;;;;;6138818;23;20457;-77
2021/06/17 12:17:55;;;;;;;6.57;6.07;;;36.00;62.10;;;;;;6127239;23;20471;-77
2021/06/17 12:20:27;;;;;;;6.70;6.10;;;36.00;61.60;;;;;;6103910;23;20525;-77
2021/06/17 12:23:09;;;;;;;5.87;5.37;;;35.90;61.20;;;;;;6102653;23;20420;-77
2021/06/17 12:25:39;;;;;;;5.90;5.50;;;35.90;61.30;;;;;;6138548;23;20853;-77
2021/06/17 12:28:09;;;;;;;6.57;5.97;;;35.90;61.40;;;;;;6102071;23;20440;-77
2021/06/17 12:30:40;;;;;;;5.60;5.20;;;35.90;61.40;;;;;;6102332;23;20795;-77
2021/06/17 12:33:14;;;;;;;6.47;5.63;;;35.90;61.30;;;;;;6102246;23;20409;-77
2021/06/17 12:35:47;;;;;;;6.23;5.73;;;35.90;61.00;;;;;;6102348;23;20445;-77
2021/06/17 12:38:28;;;;;;;5.90;5.40;;;35.90;60.70;;;;;;6137575;23;20497;-77
2021/06/17 12:41:11;;;;;;;6.70;6.20;;;35.90;60.50;;;;;;6126253;23;20433;-77
2021/06/17 12:43:43;;;;;;;6.33;5.73;;;35.90;60.40;;;;;;6101931;23;20509;-77
2021/06/17 12:46:12;;;;;;;6.10;5.23;;;35.90;60.70;;;;;;6137940;23;20393;-77
2021/06/17 12:54:23;;;;;;;5.30;4.90;;;35.90;59.60;;;;;;6128155;23;20869;-77
2021/06/17 12:56:54;;;;;;;5.60;5.20;;;35.90;58.90;;;;;;6102615;23;20475;-77
2021/06/17 12:59:39;;;;;;;5.90;5.40;;;35.90;58.20;;;;;;6126676;23;20544;-78
2021/06/17 13:02:09;;;;;;;6.70;5.83;;;35.90;57.50;;;;;;6139587;23;20528;-77
2021/06/17 13:04:38;;;;;;;7.17;5.60;;;35.90;57.20;;;;;;6126502;23;20413;-77